Time;durP1;ratioP1;P1;durP2;ratioP2;P2;SDS_P1;SDS_P2;PMS_P1;PMS_P2;Temp;Humidity;BMP_temperature;BMP_pressure;BME280_temperature;BME280_humidity;BME280_pressure;Samples;Min_cycle;Max_cycle;Signal;HPM_P1;HPM_P2
2022/11/27 00:01:47;;;;;;;;;;;;;;;;;;5012288;28;1856;-76
2022/11/27 00:04:13;;;;;;;;;;;;;;;;;;5018770;28;1574;-76
2022/11/27 00:06:40;;;;;;;;;;;;;;;;;;5020736;28;1844;-76
2022/11/27 00:09:07;;;;;;;;;;;;;;;;;;5025811;28;1646;-77
2022/11/27 00:11:34;;;;;;;;;;;;;;;;;;5044249;28;1103;-76
2022/11/27 00:14:00;;;;;;;;;;;;;;;;;;5051696;28;1063;-75
2022/11/27 00:16:28;;;;;;;;;;;;;;;;;;5051445;28;2466;-76
2022/11/27 00:18:54;;;;;;;;;;;;;;;;;;5047118;28;1772;-76
2022/11/27 00:21:22;;;;;;;;;;;;;;;;;;5034491;28;1139;-74
2022/11/27 00:23:49;;;;;;;;;;;;;;;;;;5051629;28;782;-76
2022/11/27 00:26:15;;;;;;;;;;;;;;;;;;5047737;22;3528;-83
2022/11/27 00:28:42;;;;;;;;;;;;;;;;;;5037787;28;1207;-83
2022/11/27 00:31:09;;;;;;;;;;;;;;;;;;5046984;28;1811;-84
2022/11/27 00:33:37;;;;;;;;;;;;;;;;;;5045775;28;1255;-83
2022/11/27 00:36:03;;;;;;;;;;;;;;;;;;5051583;28;1922;-83
2022/11/27 00:38:29;;;;;;;;;;;;;;;;;;5050562;28;1814;-84
2022/11/27 00:40:58;;;;;;;;;;;;;;;;;;5054929;28;1561;-82
2022/11/27 00:43:24;;;;;;;;;;;;;;;;;;5046993;28;1194;-81
2022/11/27 00:45:50;;;;;;;;;;;;;;;;;;5018766;28;1657;-80
2022/11/27 00:48:17;;;;;;;;;;;;;;;;;;5016805;28;1130;-80
2022/11/27 00:50:44;;;;;;;;;;;;;;;;;;5012353;28;1277;-80
2022/11/27 00:53:11;;;;;;;;;;;;;;;;;;5006230;28;909;-80
2022/11/27 00:55:37;;;;;;;;;;;;;;;;;;4980544;28;2129;-79
2022/11/27 00:58:04;;;;;;;;;;;;;;;;;;4995128;28;1420;-79
2022/11/27 01:00:30;;;;;;;;;;;;;;;;;;4992796;28;897;-81
2022/11/27 01:02:57;;;;;;;;;;;;;;;;;;4990879;28;1173;-80
2022/11/27 01:05:23;;;;;;;;;;;;;;;;;;4972494;28;1302;-77
2022/11/27 01:07:51;;;;;;;;;;;;;;;;;;4985969;28;1792;-78
2022/11/27 01:10:18;;;;;;;;;;;;;;;;;;4968611;28;1603;-76
2022/11/27 01:12:44;;;;;;;;;;;;;;;;;;5029324;28;921;-79
2022/11/27 01:15:11;;;;;;;;;;;;;;;;;;5038571;28;1907;-79
2022/11/27 01:17:37;;;;;;;;;;;;;;;;;;5039374;28;1398;-79
2022/11/27 01:20:03;;;;;;;;;;;;;;;;;;5046943;28;1804;-79
2022/11/27 01:22:29;;;;;;;;;;;;;;;;;;5053158;28;1265;-79
2022/11/27 01:24:57;;;;;;;;;;;;;;;;;;5019215;28;1108;-79
2022/11/27 01:27:23;;;;;;;;;;;;;;;;;;5036330;28;1318;-79
2022/11/27 01:29:49;;;;;;;;;;;;;;;;;;5044726;28;1796;-79
2022/11/27 01:32:16;;;;;;;;;;;;;;;;;;5055384;28;1391;-78
2022/11/27 01:34:42;;;;;;;;;;;;;;;;;;5056526;28;810;-80
2022/11/27 01:37:08;;;;;;;;;;;;;;;;;;5056032;28;1329;-79
2022/11/27 01:39:34;;;;;;;;;;;;;;;;;;5054378;28;1108;-79
2022/11/27 01:42:02;;;;;;;;;;;;;;;;;;5052691;28;1855;-79
2022/11/27 01:44:48;;;;;;;;;;;;;;;;;;5047406;28;1123;-78
2022/11/27 01:47:15;;;;;;;;;;;;;;;;;;5058523;28;1811;-79
2022/11/27 01:49:43;;;;;;;;;;;;;;;;;;5059024;28;1165;-79
2022/11/27 01:52:10;;;;;;;;;;;;;;;;;;5055668;28;1222;-79
2022/11/27 01:54:37;;;;;;;;;;;;;;;;;;5054814;28;1779;-79
2022/11/27 01:57:06;;;;;;;;;;;;;;;;;;5052787;28;1899;-79
2022/11/27 01:59:32;;;;;;;;;;;;;;;;;;5056340;28;1004;-79
2022/11/27 02:01:58;;;;;;;;;;;;;;;;;;5056031;28;1080;-79
2022/11/27 02:04:25;;;;;;;;;;;;;;;;;;5057728;28;965;-78
2022/11/27 02:06:51;;;;;;;;;;;;;;;;;;5051683;28;1905;-78
2022/11/27 02:09:17;;;;;;;;;;;;;;;;;;5054713;28;1462;-79
2022/11/27 02:11:46;;;;;;;;;;;;;;;;;;5060251;28;1149;-79
2022/11/27 02:14:15;;;;;;;;;;;;;;;;;;5055251;28;1052;-79
2022/11/27 02:16:43;;;;;;;;;;;;;;;;;;5054164;28;1977;-79
2022/11/27 02:19:12;;;;;;;;;;;;;;;;;;5053335;28;1866;-79
2022/11/27 02:21:41;;;;;;;;;;;;;;;;;;5047124;28;1244;-79
2022/11/27 02:24:22;;;;;;;;;;;;;;;;;;5049070;28;1780;-80
2022/11/27 02:27:05;;;;;;;;;;;;;;;;;;5054105;28;1357;-78
2022/11/27 02:29:33;;;;;;;;;;;;;;;;;;5058929;28;1819;-78
2022/11/27 02:32:01;;;;;;;;;;;;;;;;;;5056887;28;1170;-79
2022/11/27 02:34:29;;;;;;;;;;;;;;;;;;5055054;28;1122;-79
2022/11/27 02:36:57;;;;;;;;;;;;;;;;;;5054614;28;1914;-80
2022/11/27 02:39:25;;;;;;;;;;;;;;;;;;5054017;28;854;-79
2022/11/27 02:41:54;;;;;;;;;;;;;;;;;;5049083;28;1752;-78
2022/11/27 02:44:20;;;;;;;;;;;;;;;;;;5049206;28;1628;-79
2022/11/27 02:46:48;;;;;;;;;;;;;;;;;;5048980;28;1365;-78
2022/11/27 02:49:15;;;;;;;;;;;;;;;;;;5057219;28;885;-78
2022/11/27 02:51:44;;;;;;;;;;;;;;;;;;5054598;28;775;-79
2022/11/27 02:54:12;;;;;;;;;;;;;;;;;;5053330;28;1776;-79
2022/11/27 02:56:38;;;;;;;;;;;;;;;;;;5055687;28;1898;-79
2022/11/27 02:59:05;;;;;;;;;;;;;;;;;;5057943;28;1122;-78
2022/11/27 03:01:32;;;;;;;;;;;;;;;;;;5053970;28;647;-79
2022/11/27 03:03:59;;;;;;;;;;;;;;;;;;5054424;28;1071;-79
2022/11/27 03:06:28;;;;;;;;;;;;;;;;;;5050148;28;1759;-79
2022/11/27 03:08:55;;;;;;;;;;;;;;;;;;5053841;28;1189;-79
2022/11/27 03:11:21;;;;;;;;;;;;;;;;;;5037235;28;1397;-79
2022/11/27 03:13:48;;;;;;;;;;;;;;;;;;5046116;28;1697;-78
2022/11/27 03:16:15;;;;;;;;;;;;;;;;;;5044573;28;1915;-78
2022/11/27 03:18:42;;;;;;;;;;;;;;;;;;5055823;28;1095;-79
2022/11/27 03:21:12;;;;;;;;;;;;;;;;;;5052984;28;1269;-79
2022/11/27 03:23:38;;;;;;;;;;;;;;;;;;5053863;28;1072;-79
2022/11/27 03:26:04;;;;;;;;;;;;;;;;;;5047316;28;1787;-78
2022/11/27 03:28:31;;;;;;;;;;;;;;;;;;5053140;28;1756;-79
2022/11/27 03:30:57;;;;;;;;;;;;;;;;;;5054145;28;1182;-79
2022/11/27 03:33:23;;;;;;;;;;;;;;;;;;5053329;28;1040;-79
2022/11/27 03:35:49;;;;;;;;;;;;;;;;;;5054176;28;1915;-79
2022/11/27 03:38:17;;;;;;;;;;;;;;;;;;5051946;28;1862;-78
2022/11/27 03:40:45;;;;;;;;;;;;;;;;;;5054071;28;1154;-78
2022/11/27 03:43:14;;;;;;;;;;;;;;;;;;5051597;28;1763;-79
2022/11/27 03:45:44;;;;;;;;;;;;;;;;;;5048912;28;1325;-79
2022/11/27 03:48:13;;;;;;;;;;;;;;;;;;5056056;28;1760;-79
2022/11/27 03:50:42;;;;;;;;;;;;;;;;;;5055941;28;1135;-80
2022/11/27 03:53:09;;;;;;;;;;;;;;;;;;5054833;28;1166;-79
2022/11/27 03:55:39;;;;;;;;;;;;;;;;;;5055436;28;1914;-79
2022/11/27 03:58:06;;;;;;;;;;;;;;;;;;5047492;28;1807;-79
2022/11/27 04:00:34;;;;;;;;;;;;;;;;;;5056151;28;772;-79
2022/11/27 04:03:01;;;;;;;;;;;;;;;;;;5054858;28;1120;-79
2022/11/27 04:05:27;;;;;;;;;;;;;;;;;;5037200;28;1356;-79
2022/11/27 04:07:53;;;;;;;;;;;;;;;;;;5049690;28;1816;-80
2022/11/27 04:10:19;;;;;;;;;;;;;;;;;;5055971;28;1170;-80
2022/11/27 04:12:47;;;;;;;;;;;;;;;;;;5037902;28;1220;-79
2022/11/27 04:15:13;;;;;;;;;;;;;;;;;;5056096;28;818;-79
2022/11/27 04:17:39;;;;;;;;;;;;;;;;;;5038676;28;1898;-79
2022/11/27 04:20:06;;;;;;;;;;;;;;;;;;5055290;28;1232;-80
2022/11/27 04:22:32;;;;;;;;;;;;;;;;;;5054680;28;1088;-80
2022/11/27 04:24:58;;;;;;;;;;;;;;;;;;5037703;28;1191;-79
2022/11/27 04:27:25;;;;;;;;;;;;;;;;;;5037474;28;1828;-78
2022/11/27 04:29:52;;;;;;;;;;;;;;;;;;5056080;28;1213;-80
2022/11/27 04:32:19;;;;;;;;;;;;;;;;;;5055110;28;1327;-79
2022/11/27 04:34:45;;;;;;;;;;;;;;;;;;5058535;28;1259;-80
2022/11/27 04:37:11;;;;;;;;;;;;;;;;;;5059449;28;1952;-79
2022/11/27 04:39:37;;;;;;;;;;;;;;;;;;5057175;28;1780;-79
2022/11/27 04:42:03;;;;;;;;;;;;;;;;;;5059232;28;1228;-80
2022/11/27 04:44:30;;;;;;;;;;;;;;;;;;5059136;28;1536;-79
2022/11/27 04:46:57;;;;;;;;;;;;;;;;;;5058888;28;1847;-79
2022/11/27 04:49:24;;;;;;;;;;;;;;;;;;5061129;28;1154;-79
2022/11/27 04:51:50;;;;;;;;;;;;;;;;;;5058038;28;1230;-80
2022/11/27 04:54:16;;;;;;;;;;;;;;;;;;5056183;28;1776;-79
2022/11/27 04:56:42;;;;;;;;;;;;;;;;;;5058153;28;1910;-80
2022/11/27 04:59:09;;;;;;;;;;;;;;;;;;5063650;28;1175;-80
2022/11/27 05:01:35;;;;;;;;;;;;;;;;;;5055418;28;1755;-79
2022/11/27 05:04:03;;;;;;;;;;;;;;;;;;5040956;28;1630;-77
2022/11/27 05:06:30;;;;;;;;;;;;;;;;;;4989440;28;1462;-77
2022/11/27 05:09:00;;;;;;;;;;;;;;;;;;4990570;28;893;-78
2022/11/27 05:11:27;;;;;;;;;;;;;;;;;;4977924;28;1593;-78
2022/11/27 05:14:13;;;;;;;;;;;;;;;;;;5015313;28;1867;-78
2022/11/27 05:16:40;;;;;;;;;;;;;;;;;;5023794;28;1981;-79
2022/11/27 05:19:08;;;;;;;;;;;;;;;;;;5000030;28;810;-78
2022/11/27 05:21:34;;;;;;;;;;;;;;;;;;5045529;28;1739;-79
2022/11/27 05:24:01;;;;;;;;;;;;;;;;;;5048066;28;1091;-78
2022/11/27 05:26:27;;;;;;;;;;;;;;;;;;5046156;28;1428;-79
2022/11/27 05:28:53;;;;;;;;;;;;;;;;;;5054313;28;1079;-79
2022/11/27 05:31:19;;;;;;;;;;;;;;;;;;5052428;28;1736;-78
2022/11/27 05:33:45;;;;;;;;;;;;;;;;;;5055358;28;1148;-79
2022/11/27 05:36:13;;;;;;;;;;;;;;;;;;5054490;28;1973;-80
2022/11/27 05:38:39;;;;;;;;;;;;;;;;;;5052544;28;1945;-79
2022/11/27 05:41:05;;;;;;;;;;;;;;;;;;5054304;28;1130;-78
2022/11/27 05:43:31;;;;;;;;;;;;;;;;;;5052174;28;948;-79
2022/11/27 05:45:58;;;;;;;;;;;;;;;;;;5037723;28;1736;-78
2022/11/27 05:48:24;;;;;;;;;;;;;;;;;;5047794;28;1241;-79
2022/11/27 05:50:50;;;;;;;;;;;;;;;;;;5054432;28;1092;-79
2022/11/27 05:53:18;;;;;;;;;;;;;;;;;;5051078;28;934;-80
2022/11/27 05:55:44;;;;;;;;;;;;;;;;;;5054169;28;1353;-79
2022/11/27 05:58:11;;;;;;;;;;;;;;;;;;5051599;28;1985;-79
2022/11/27 06:00:37;;;;;;;;;;;;;;;;;;5051237;28;1172;-78
2022/11/27 06:03:03;;;;;;;;;;;;;;;;;;4993917;28;877;-78
2022/11/27 06:05:30;;;;;;;;;;;;;;;;;;4991918;28;1444;-78
2022/11/27 06:07:56;;;;;;;;;;;;;;;;;;5008031;28;1665;-78
2022/11/27 06:10:24;;;;;;;;;;;;;;;;;;4988077;28;901;-77
2022/11/27 06:12:50;;;;;;;;;;;;;;;;;;4973056;28;1336;-77
2022/11/27 06:15:17;;;;;;;;;;;;;;;;;;4987634;28;869;-77
2022/11/27 06:17:44;;;;;;;;;;;;;;;;;;4983091;28;1993;-77
2022/11/27 06:20:10;;;;;;;;;;;;;;;;;;4983680;28;1134;-78
2022/11/27 06:22:37;;;;;;;;;;;;;;;;;;4991185;28;1028;-78
2022/11/27 06:25:04;;;;;;;;;;;;;;;;;;4980847;28;1498;-77
2022/11/27 06:27:33;;;;;;;;;;;;;;;;;;5005545;28;1342;-78
2022/11/27 06:30:00;;;;;;;;;;;;;;;;;;4982175;22;4100;-75
2022/11/27 06:32:26;;;;;;;;;;;;;;;;;;4944777;28;1192;-75
2022/11/27 06:34:53;;;;;;;;;;;;;;;;;;4957768;28;1006;-76
2022/11/27 06:37:19;;;;;;;;;;;;;;;;;;4945267;28;1982;-76
2022/11/27 06:39:47;;;;;;;;;;;;;;;;;;4946775;28;1302;-75
2022/11/27 06:42:14;;;;;;;;;;;;;;;;;;4970445;28;1412;-75
2022/11/27 06:44:42;;;;;;;;;;;;;;;;;;4970192;28;1281;-75
2022/11/27 06:47:08;;;;;;;;;;;;;;;;;;5024895;28;1657;-75
2022/11/27 06:49:34;;;;;;;;;;;;;;;;;;5042323;28;1420;-75
2022/11/27 06:52:00;;;;;;;;;;;;;;;;;;5044581;28;1553;-75
2022/11/27 06:54:27;;;;;;;;;;;;;;;;;;5047593;28;1652;-75
2022/11/27 06:56:53;;;;;;;;;;;;;;;;;;5041619;28;1918;-75
2022/11/27 06:59:19;;;;;;;;;;;;;;;;;;5050049;28;1396;-75
2022/11/27 07:01:46;;;;;;;;;;;;;;;;;;5050671;28;1102;-74
2022/11/27 07:04:13;;;;;;;;;;;;;;;;;;5051002;28;953;-75
2022/11/27 07:06:40;;;;;;;;;;;;;;;;;;5050919;28;1312;-74
2022/11/27 07:09:06;;;;;;;;;;;;;;;;;;5049887;28;1352;-75
2022/11/27 07:11:33;;;;;;;;;;;;;;;;;;5050568;28;1079;-74
2022/11/27 07:14:00;;;;;;;;;;;;;;;;;;5051038;28;1100;-75
2022/11/27 07:16:26;;;;;;;;;;;;;;;;;;5050983;28;786;-75
2022/11/27 07:18:54;;;;;;;;;;;;;;;;;;5049892;28;1922;-75
2022/11/27 07:21:21;;;;;;;;;;;;;;;;;;5051177;28;1072;-75
2022/11/27 07:23:47;;;;;;;;;;;;;;;;;;5060023;28;771;-76
2022/11/27 07:26:14;;;;;;;;;;;;;;;;;;5068766;28;1380;-75
2022/11/27 07:28:42;;;;;;;;;;;;;;;;;;5063912;28;1404;-74
2022/11/27 07:31:08;;;;;;;;;;;;;;;;;;5051143;28;956;-75
2022/11/27 07:33:35;;;;;;;;;;;;;;;;;;5050057;28;1055;-75
2022/11/27 07:36:03;;;;;;;;;;;;;;;;;;5050792;28;901;-74
2022/11/27 07:38:29;;;;;;;;;;;;;;;;;;5050750;28;1981;-75
2022/11/27 07:40:58;;;;;;;;;;;;;;;;;;5050932;28;1056;-75
2022/11/27 07:43:24;;;;;;;;;;;;;;;;;;5032251;28;1297;-74
2022/11/27 07:45:51;;;;;;;;;;;;;;;;;;5050353;28;787;-74
2022/11/27 07:48:17;;;;;;;;;;;;;;;;;;5050552;28;1416;-75
2022/11/27 07:50:43;;;;;;;;;;;;;;;;;;5050889;28;914;-74
2022/11/27 07:53:11;;;;;;;;;;;;;;;;;;5032007;28;1140;-75
2022/11/27 07:55:37;;;;;;;;;;;;;;;;;;5032709;28;1447;-75
2022/11/27 07:58:03;;;;;;;;;;;;;;;;;;5032505;28;1910;-73
2022/11/27 08:00:29;;;;;;;;;;;;;;;;;;5047527;28;1476;-74
2022/11/27 08:02:56;;;;;;;;;;;;;;;;;;5047348;28;1304;-74
2022/11/27 08:05:22;;;;;;;;;;;;;;;;;;5047460;28;1463;-75
2022/11/27 08:07:48;;;;;;;;;;;;;;;;;;5044267;28;1340;-76
2022/11/27 08:10:16;;;;;;;;;;;;;;;;;;5047469;28;1444;-75
2022/11/27 08:12:42;;;;;;;;;;;;;;;;;;5028117;28;1500;-75
2022/11/27 08:15:09;;;;;;;;;;;;;;;;;;5020879;28;1341;-74
2022/11/27 08:17:35;;;;;;;;;;;;;;;;;;5042567;28;1985;-74
2022/11/27 08:20:01;;;;;;;;;;;;;;;;;;5052884;28;1435;-75
2022/11/27 08:22:28;;;;;;;;;;;;;;;;;;5042711;28;1519;-74
2022/11/27 08:24:54;;;;;;;;;;;;;;;;;;5053285;28;1355;-74
2022/11/27 08:27:21;;;;;;;;;;;;;;;;;;5030279;28;1444;-74
2022/11/27 08:29:48;;;;;;;;;;;;;;;;;;5047167;28;1401;-75
2022/11/27 08:32:14;;;;;;;;;;;;;;;;;;5046926;28;1332;-75
2022/11/27 08:34:40;;;;;;;;;;;;;;;;;;5054416;28;1150;-75
2022/11/27 08:37:06;;;;;;;;;;;;;;;;;;5041670;28;1962;-75
2022/11/27 08:39:33;;;;;;;;;;;;;;;;;;5050310;28;1420;-75
2022/11/27 08:41:59;;;;;;;;;;;;;;;;;;5049574;28;1543;-74
2022/11/27 08:44:27;;;;;;;;;;;;;;;;;;5049528;28;1417;-77
2022/11/27 08:46:53;;;;;;;;;;;;;;;;;;5034811;28;1630;-77
2022/11/27 08:49:19;;;;;;;;;;;;;;;;;;5050339;28;1487;-75
2022/11/27 08:51:45;;;;;;;;;;;;;;;;;;5031655;28;1594;-75
2022/11/27 08:54:11;;;;;;;;;;;;;;;;;;5031735;28;1468;-75
2022/11/27 08:56:38;;;;;;;;;;;;;;;;;;5046192;28;1447;-74
2022/11/27 08:59:04;;;;;;;;;;;;;;;;;;5036854;28;1981;-75
2022/11/27 09:01:32;;;;;;;;;;;;;;;;;;5053079;28;1157;-75
2022/11/27 09:03:58;;;;;;;;;;;;;;;;;;5047166;28;1443;-75
2022/11/27 09:06:26;;;;;;;;;;;;;;;;;;5041745;28;1461;-75
2022/11/27 09:08:55;;;;;;;;;;;;;;;;;;5048643;28;1486;-75
2022/11/27 09:11:21;;;;;;;;;;;;;;;;;;5039084;28;1412;-74
2022/11/27 09:13:47;;;;;;;;;;;;;;;;;;5053224;28;1169;-74
2022/11/27 09:16:15;;;;;;;;;;;;;;;;;;5053548;28;1056;-75
2022/11/27 09:18:44;;;;;;;;;;;;;;;;;;5053093;28;1906;-74
2022/11/27 09:21:10;;;;;;;;;;;;;;;;;;5053554;28;1111;-76
2022/11/27 09:23:37;;;;;;;;;;;;;;;;;;5034661;28;1492;-75
2022/11/27 09:26:04;;;;;;;;;;;;;;;;;;5053257;28;1048;-76
2022/11/27 09:28:31;;;;;;;;;;;;;;;;;;5035321;28;1415;-76
2022/11/27 09:30:58;;;;;;;;;;;;;;;;;;5035140;28;1372;-76
2022/11/27 09:33:24;;;;;;;;;;;;;;;;;;5052108;28;952;-77
2022/11/27 09:35:52;;;;;;;;;;;;;;;;;;5035101;28;1347;-76
2022/11/27 09:38:18;;;;;;;;;;;;;;;;;;5052909;28;1977;-76
2022/11/27 09:40:45;;;;;;;;;;;;;;;;;;5053018;28;1052;-76
2022/11/27 09:43:11;;;;;;;;;;;;;;;;;;5034368;28;1283;-76
2022/11/27 09:45:39;;;;;;;;;;;;;;;;;;5034994;28;1136;-77
2022/11/27 09:48:05;;;;;;;;;;;;;;;;;;5052922;28;1414;-78
2022/11/27 09:50:32;;;;;;;;;;;;;;;;;;5052529;28;1067;-74
2022/11/27 09:53:01;;;;;;;;;;;;;;;;;;5033917;28;1248;-74
2022/11/27 09:55:29;;;;;;;;;;;;;;;;;;5052640;28;1139;-72
2022/11/27 09:57:57;;;;;;;;;;;;;;;;;;5052669;28;1906;-72
2022/11/27 10:00:24;;;;;;;;;;;;;;;;;;5052784;28;1352;-73
2022/11/27 10:02:52;;;;;;;;;;;;;;;;;;5017774;28;1670;-74
2022/11/27 10:05:20;;;;;;;;;;;;;;;;;;5052753;28;675;-76
2022/11/27 10:08:07;;;;;;;;;;;;;;;;;;5052761;28;1082;-74
2022/11/27 10:10:38;;;;;;;;;;;;;;;;;;5028124;28;1140;-75
2022/11/27 10:13:07;;;;;;;;;;;;;;;;;;5033750;28;1173;-73
2022/11/27 10:15:36;;;;;;;;;;;;;;;;;;5034521;28;1356;-74
2022/11/27 10:18:03;;;;;;;;;;;;;;;;;;5034295;28;1972;-74
2022/11/27 10:20:32;;;;;;;;;;;;;;;;;;5052194;28;1059;-71
2022/11/27 10:23:00;;;;;;;;;;;;;;;;;;5033541;28;1159;-75
2022/11/27 10:25:28;;;;;;;;;;;;;;;;;;5052283;28;1063;-75
2022/11/27 10:28:00;;;;;;;;;;;;;;;;;;5052146;28;845;-75
2022/11/27 10:30:26;;;;;;;;;;;;;;;;;;5034144;28;1148;-75
2022/11/27 10:32:54;;;;;;;;;;;;;;;;;;5051811;28;750;-76
2022/11/27 10:35:21;;;;;;;;;;;;;;;;;;5043453;28;1241;-73
2022/11/27 10:37:48;;;;;;;;;;;;;;;;;;5049133;28;1899;-75
2022/11/27 10:40:18;;;;;;;;;;;;;;;;;;5060900;28;1306;-74
2022/11/27 10:42:46;;;;;;;;;;;;;;;;;;5051306;28;857;-74
2022/11/27 10:45:17;;;;;;;;;;;;;;;;;;5051451;28;1094;-74
2022/11/27 10:47:45;;;;;;;;;;;;;;;;;;5051110;28;1786;-75
2022/11/27 10:50:13;;;;;;;;;;;;;;;;;;5033676;28;1534;-76
2022/11/27 10:52:42;;;;;;;;;;;;;;;;;;5050962;28;1075;-75
2022/11/27 10:55:12;;;;;;;;;;;;;;;;;;5051258;28;1254;-75
2022/11/27 10:57:44;;;;;;;;;;;;;;;;;;5033675;28;1113;-75
2022/11/27 11:00:13;;;;;;;;;;;;;;;;;;5033402;28;1426;-75
2022/11/27 11:02:41;;;;;;;;;;;;;;;;;;5050730;28;902;-75
2022/11/27 11:05:19;;;;;;;;;;;;;;;;;;5051145;28;1060;-74
2022/11/27 11:07:53;;;;;;;;;;;;;;;;;;5051255;28;1106;-76
2022/11/27 11:10:22;;;;;;;;;;;;;;;;;;5051109;28;1329;-74
2022/11/27 11:12:49;;;;;;;;;;;;;;;;;;5050491;28;1075;-72
2022/11/27 11:15:16;;;;;;;;;;;;;;;;;;5033592;28;1431;-72
2022/11/27 11:17:43;;;;;;;;;;;;;;;;;;5033367;28;1208;-77
2022/11/27 11:20:14;;;;;;;;;;;;;;;;;;5033378;28;1917;-73
2022/11/27 11:22:44;;;;;;;;;;;;;;;;;;5032280;28;1151;-72
2022/11/27 11:25:13;;;;;;;;;;;;;;;;;;5051229;28;1127;-75
2022/11/27 11:27:42;;;;;;;;;;;;;;;;;;5051350;28;909;-75
2022/11/27 11:30:19;;;;;;;;;;;;;;;;;;5051184;28;1465;-71
2022/11/27 11:32:48;;;;;;;;;;;;;;;;;;5032387;28;981;-72
2022/11/27 11:35:23;;;;;;;;;;;;;;;;;;5032786;28;1504;-75
2022/11/27 11:37:49;;;;;;;;;;;;;;;;;;5050951;28;1064;-74
2022/11/27 11:40:20;;;;;;;;;;;;;;;;;;5033369;28;1979;-76
2022/11/27 11:42:51;;;;;;;;;;;;;;;;;;5050350;28;877;-76
2022/11/27 11:45:18;;;;;;;;;;;;;;;;;;5051431;28;1143;-73
2022/11/27 11:47:44;;;;;;;;;;;;;;;;;;5033181;28;1174;-77
2022/11/27 11:50:13;;;;;;;;;;;;;;;;;;5033156;28;1421;-74
2022/11/27 11:52:43;;;;;;;;;;;;;;;;;;5050368;28;949;-74
2022/11/27 11:55:12;;;;;;;;;;;;;;;;;;5050838;28;1195;-77
2022/11/27 11:58:09;;;;;;;;;;;;;;;;;;5051005;28;1051;-75
2022/11/27 12:00:38;;;;;;;;;;;;;;;;;;5051084;28;617;-75
2022/11/27 12:03:13;;;;;;;;;;;;;;;;;;5050140;28;945;-75
2022/11/27 12:05:41;;;;;;;;;;;;;;;;;;5050825;28;1075;-76
2022/11/27 12:08:19;;;;;;;;;;;;;;;;;;5032625;28;1393;-74
2022/11/27 12:10:48;;;;;;;;;;;;;;;;;;5027861;28;1484;-75
2022/11/27 12:13:19;;;;;;;;;;;;;;;;;;4995654;28;1209;-76
2022/11/27 12:15:48;;;;;;;;;;;;;;;;;;4992842;28;910;-75
2022/11/27 12:18:17;;;;;;;;;;;;;;;;;;5040082;28;2256;-74
2022/11/27 12:20:47;;;;;;;;;;;;;;;;;;5029697;28;1235;-75
2022/11/27 12:23:22;;;;;;;;;;;;;;;;;;5034515;28;1211;-75
2022/11/27 12:25:50;;;;;;;;;;;;;;;;;;5042391;28;1290;-75
2022/11/27 12:28:20;;;;;;;;;;;;;;;;;;5047227;28;1424;-73
2022/11/27 12:30:48;;;;;;;;;;;;;;;;;;5038153;22;3562;-82
2022/11/27 12:33:25;;;;;;;;;;;;;;;;;;5006332;28;1295;-81
2022/11/27 12:35:52;;;;;;;;;;;;;;;;;;5023041;28;1109;-79
2022/11/27 12:38:22;;;;;;;;;;;;;;;;;;5009383;28;1918;-82
2022/11/27 12:40:53;;;;;;;;;;;;;;;;;;5023175;28;1521;-82
2022/11/27 12:43:20;;;;;;;;;;;;;;;;;;4975628;28;1271;-81
2022/11/27 12:45:47;;;;;;;;;;;;;;;;;;4994397;28;1108;-82
2022/11/27 12:48:14;;;;;;;;;;;;;;;;;;4995011;28;1184;-82
2022/11/27 12:50:41;;;;;;;;;;;;;;;;;;5003478;28;1545;-81
2022/11/27 12:53:10;;;;;;;;;;;;;;;;;;5002725;28;1383;-82
2022/11/27 12:55:38;;;;;;;;;;;;;;;;;;5012040;28;1561;-82
2022/11/27 12:58:05;;;;;;;;;;;;;;;;;;5031050;28;1343;-82
2022/11/27 13:00:32;;;;;;;;;;;;;;;;;;5023244;28;1918;-82
2022/11/27 13:03:00;;;;;;;;;;;;;;;;;;5039557;28;1398;-80
2022/11/27 13:05:27;;;;;;;;;;;;;;;;;;5015683;28;1284;-81
2022/11/27 13:07:55;;;;;;;;;;;;;;;;;;5036965;28;1229;-82
2022/11/27 13:10:22;;;;;;;;;;;;;;;;;;5040472;28;1231;-82
2022/11/27 13:12:51;;;;;;;;;;;;;;;;;;5022796;28;1231;-81
2022/11/27 13:15:19;;;;;;;;;;;;;;;;;;5040968;28;1495;-82
2022/11/27 13:17:45;;;;;;;;;;;;;;;;;;5035665;28;1226;-82
2022/11/27 13:20:13;;;;;;;;;;;;;;;;;;5039209;28;1914;-82
2022/11/27 13:22:40;;;;;;;;;;;;;;;;;;5039169;28;1052;-82
2022/11/27 13:25:06;;;;;;;;;;;;;;;;;;5039216;28;841;-82
2022/11/27 13:27:33;;;;;;;;;;;;;;;;;;5022046;28;1279;-82
2022/11/27 13:30:00;;;;;;;;;;;;;;;;;;5027634;28;1483;-81
2022/11/27 13:32:27;;;;;;;;;;;;;;;;;;5030814;28;1151;-82
2022/11/27 13:34:55;;;;;;;;;;;;;;;;;;5037790;28;1345;-82
2022/11/27 13:37:25;;;;;;;;;;;;;;;;;;5034928;28;1598;-82
2022/11/27 13:39:57;;;;;;;;;;;;;;;;;;5006373;28;1963;-80
2022/11/27 13:42:24;;;;;;;;;;;;;;;;;;5023194;28;1432;-78
2022/11/27 13:44:52;;;;;;;;;;;;;;;;;;5021948;28;1178;-78
2022/11/27 13:47:20;;;;;;;;;;;;;;;;;;5022734;28;1341;-79
2022/11/27 13:49:56;;;;;;;;;;;;;;;;;;5015594;28;1319;-81
2022/11/27 13:52:22;;;;;;;;;;;;;;;;;;5014491;28;892;-79
2022/11/27 13:54:52;;;;;;;;;;;;;;;;;;4995891;28;1399;-79
2022/11/27 13:57:19;;;;;;;;;;;;;;;;;;5005458;28;1419;-79
2022/11/27 13:59:55;;;;;;;;;;;;;;;;;;5029001;28;1982;-79
2022/11/27 14:02:23;;;;;;;;;;;;;;;;;;5015162;28;1114;-80
2022/11/27 14:04:49;;;;;;;;;;;;;;;;;;5020344;28;1104;-80
2022/11/27 14:07:16;;;;;;;;;;;;;;;;;;4997062;28;1249;-79
2022/11/27 14:09:42;;;;;;;;;;;;;;;;;;5014569;28;1598;-79
2022/11/27 14:12:15;;;;;;;;;;;;;;;;;;5028526;28;1159;-79
2022/11/27 14:14:41;;;;;;;;;;;;;;;;;;5028019;28;1063;-79
2022/11/27 14:17:20;;;;;;;;;;;;;;;;;;5012602;28;1281;-82
2022/11/27 14:19:57;;;;;;;;;;;;;;;;;;5014138;28;1952;-80
2022/11/27 14:22:31;;;;;;;;;;;;;;;;;;5013129;28;1100;-79
2022/11/27 14:24:57;;;;;;;;;;;;;;;;;;5013585;28;1123;-82
2022/11/27 14:27:24;;;;;;;;;;;;;;;;;;5021459;28;1472;-80
2022/11/27 14:29:51;;;;;;;;;;;;;;;;;;5022042;28;1733;-80
2022/11/27 14:32:17;;;;;;;;;;;;;;;;;;5013357;28;1032;-80
2022/11/27 14:34:44;;;;;;;;;;;;;;;;;;4993049;28;1477;-78
2022/11/27 14:37:21;;;;;;;;;;;;;;;;;;4997893;28;1150;-80
2022/11/27 14:39:48;;;;;;;;;;;;;;;;;;4938411;28;1922;-75
2022/11/27 14:42:19;;;;;;;;;;;;;;;;;;4924508;28;1640;-77
2022/11/27 14:44:46;;;;;;;;;;;;;;;;;;4929115;28;961;-77
2022/11/27 14:47:17;;;;;;;;;;;;;;;;;;4933105;28;882;-78
2022/11/27 14:49:43;;;;;;;;;;;;;;;;;;4931530;28;1397;-78
2022/11/27 14:52:12;;;;;;;;;;;;;;;;;;4922257;28;1669;-77
2022/11/27 14:54:39;;;;;;;;;;;;;;;;;;4903362;28;1294;-77
2022/11/27 14:57:06;;;;;;;;;;;;;;;;;;4931767;28;905;-76
2022/11/27 14:59:32;;;;;;;;;;;;;;;;;;4928175;28;2011;-76
2022/11/27 15:02:00;;;;;;;;;;;;;;;;;;4934704;28;1088;-76
2022/11/27 15:04:27;;;;;;;;;;;;;;;;;;4948077;28;1013;-77
2022/11/27 15:06:54;;;;;;;;;;;;;;;;;;4936837;28;1205;-78
2022/11/27 15:09:21;;;;;;;;;;;;;;;;;;4947785;28;1528;-77
2022/11/27 15:11:51;;;;;;;;;;;;;;;;;;4919914;28;1203;-76
2022/11/27 15:14:17;;;;;;;;;;;;;;;;;;4913417;28;1654;-77
2022/11/27 15:16:45;;;;;;;;;;;;;;;;;;4906203;28;1196;-76
2022/11/27 15:19:13;;;;;;;;;;;;;;;;;;4930974;28;2055;-76
2022/11/27 15:21:39;;;;;;;;;;;;;;;;;;4952665;28;1247;-77
2022/11/27 15:24:21;;;;;;;;;;;;;;;;;;4954451;28;963;-77
2022/11/27 15:26:48;;;;;;;;;;;;;;;;;;4903674;28;1233;-76
2022/11/27 15:29:28;;;;;;;;;;;;;;;;;;4912054;28;1418;-76
2022/11/27 15:31:54;;;;;;;;;;;;;;;;;;4951690;28;1256;-77
2022/11/27 15:34:21;;;;;;;;;;;;;;;;;;4978607;28;1104;-76
2022/11/27 15:36:48;;;;;;;;;;;;;;;;;;4951745;28;882;-79
2022/11/27 15:39:18;;;;;;;;;;;;;;;;;;4965489;28;1926;-77
2022/11/27 15:41:52;;;;;;;;;;;;;;;;;;4952216;28;1084;-77
2022/11/27 15:44:19;;;;;;;;;;;;;;;;;;4962689;28;1320;-76
2022/11/27 15:46:47;;;;;;;;;;;;;;;;;;4956824;28;1152;-76
2022/11/27 15:49:14;;;;;;;;;;;;;;;;;;4967249;28;1401;-79
2022/11/27 15:51:40;;;;;;;;;;;;;;;;;;4969991;28;1014;-78
2022/11/27 15:54:06;;;;;;;;;;;;;;;;;;4953458;28;1340;-78
2022/11/27 15:56:33;;;;;;;;;;;;;;;;;;4952025;28;1128;-78
2022/11/27 15:59:00;;;;;;;;;;;;;;;;;;4949364;28;1389;-78
2022/11/27 16:01:26;;;;;;;;;;;;;;;;;;4978149;28;2195;-78
2022/11/27 16:03:54;;;;;;;;;;;;;;;;;;4957488;28;901;-78
2022/11/27 16:06:22;;;;;;;;;;;;;;;;;;4937243;28;1204;-78
2022/11/27 16:08:52;;;;;;;;;;;;;;;;;;4959977;28;961;-80
2022/11/27 16:11:19;;;;;;;;;;;;;;;;;;5015180;28;1390;-80
2022/11/27 16:13:45;;;;;;;;;;;;;;;;;;5029105;28;1210;-81
2022/11/27 16:16:11;;;;;;;;;;;;;;;;;;5010300;28;1402;-80
2022/11/27 16:18:38;;;;;;;;;;;;;;;;;;5032874;28;1152;-79
2022/11/27 16:21:06;;;;;;;;;;;;;;;;;;5034790;28;1890;-79
2022/11/27 16:23:34;;;;;;;;;;;;;;;;;;5041347;28;1291;-78
2022/11/27 16:26:01;;;;;;;;;;;;;;;;;;5041690;28;1435;-82
2022/11/27 16:28:28;;;;;;;;;;;;;;;;;;5039514;28;1146;-79
2022/11/27 16:30:55;;;;;;;;;;;;;;;;;;5021046;28;1516;-79
2022/11/27 16:33:21;;;;;;;;;;;;;;;;;;4995890;28;1448;-82
2022/11/27 16:35:47;;;;;;;;;;;;;;;;;;5004540;28;1339;-82
2022/11/27 16:38:15;;;;;;;;;;;;;;;;;;5026545;28;752;-80
2022/11/27 16:40:41;;;;;;;;;;;;;;;;;;5009463;28;1902;-81
2022/11/27 16:43:08;;;;;;;;;;;;;;;;;;4984192;28;1507;-77
2022/11/27 16:45:35;;;;;;;;;;;;;;;;;;4952221;28;747;-77
2022/11/27 16:48:02;;;;;;;;;;;;;;;;;;4935979;28;806;-78
2022/11/27 16:50:29;;;;;;;;;;;;;;;;;;4918132;28;1303;-78
2022/11/27 16:52:57;;;;;;;;;;;;;;;;;;4923373;28;1245;-78
2022/11/27 16:55:26;;;;;;;;;;;;;;;;;;4917221;28;1450;-78
2022/11/27 16:57:53;;;;;;;;;;;;;;;;;;4910667;28;967;-78
2022/11/27 17:00:20;;;;;;;;;;;;;;;;;;4926321;28;1981;-78
2022/11/27 17:02:47;;;;;;;;;;;;;;;;;;4930203;28;1525;-78
2022/11/27 17:05:13;;;;;;;;;;;;;;;;;;4944918;28;824;-77
2022/11/27 17:07:41;;;;;;;;;;;;;;;;;;4955993;28;1384;-78
2022/11/27 17:10:08;;;;;;;;;;;;;;;;;;4988364;28;1307;-81